TCOEU LTBU-LTBU
Flight info
| Callsign | TCOEU |
|---|---|
| Flight time | 0h 4m |
| Altitude | 3000 |
| Route | DCT CRL DCT |
| Aircraft | DV20/L-V/N |
Departure
| Time | 2026-04-25 20:02 |
|---|---|
| Airport | Tekirdağ Çorlu Airport (LTBU) |
Arrival
| Time | 2026-04-25 20:07 |
|---|---|
| Airport | Tekirdağ Çorlu Airport (LTBU) |
| Time | Latitude | Longitude | Altitude | Speed | Heading |
|---|---|---|---|---|---|
| 2026-04-25 19:50 | 41.13142 | 27.91248 | 520 ft | 0 kts | 149° |
| 2026-04-25 19:59 | 41.13136 | 27.91264 | 520 ft | 5 kts | 62° |
| 2026-04-25 20:00 | 41.13178 | 27.91279 | 520 ft | 10 kts | 351° |
| 2026-04-25 20:00 | 41.13224 | 27.91266 | 521 ft | 11 kts | 319° |
| 2026-04-25 20:00 | 41.13287 | 27.91194 | 522 ft | 6 kts | 320° |
| 2026-04-25 20:00 | 41.13335 | 27.91157 | 523 ft | 11 kts | 8° |
| 2026-04-25 20:01 | 41.13453 | 27.91325 | 523 ft | 46 kts | 50° |
| 2026-04-25 20:01 | 41.13747 | 27.91770 | 581 ft | 72 kts | 49° |
| 2026-04-25 20:01 | 41.14125 | 27.92288 | 732 ft | 78 kts | 46° |
| 2026-04-25 20:02 | 41.14564 | 27.92801 | 956 ft | 79 kts | 39° |
| 2026-04-25 20:02 | 41.15076 | 27.92911 | 1125 ft | 88 kts | 329° |
| 2026-04-25 20:02 | 41.15537 | 27.92433 | 1415 ft | 78 kts | 319° |
| 2026-04-25 20:02 | 41.15851 | 27.91853 | 1599 ft | 82 kts | 290° |
| 2026-04-25 20:03 | 41.16004 | 27.91124 | 1795 ft | 82 kts | 280° |
| 2026-04-25 20:03 | 41.16192 | 27.90441 | 1978 ft | 82 kts | 301° |
| 2026-04-25 20:03 | 41.16573 | 27.89861 | 2143 ft | 85 kts | 324° |
| 2026-04-25 20:03 | 41.17011 | 27.89357 | 2300 ft | 79 kts | 310° |
| 2026-04-25 20:04 | 41.17072 | 27.88726 | 2328 ft | 73 kts | 218° |
| 2026-04-25 20:04 | 41.16606 | 27.88788 | 2344 ft | 70 kts | 179° |
| 2026-04-25 20:04 | 41.16138 | 27.88537 | 2307 ft | 78 kts | 207° |
| 2026-04-25 20:04 | 41.15640 | 27.88241 | 2323 ft | 76 kts | 200° |
| 2026-04-25 20:05 | 41.15149 | 27.88015 | 2341 ft | 75 kts | 199° |
| 2026-04-25 20:05 | 41.14647 | 27.87841 | 2356 ft | 76 kts | 195° |
| 2026-04-25 20:05 | 41.14117 | 27.87681 | 2338 ft | 80 kts | 193° |
| 2026-04-25 20:05 | 41.13553 | 27.87576 | 2223 ft | 83 kts | 177° |
| 2026-04-25 20:06 | 41.13020 | 27.87951 | 1936 ft | 89 kts | 137° |
| 2026-04-25 20:06 | 41.12566 | 27.88571 | 1520 ft | 99 kts | 127° |
| 2026-04-25 20:06 | 41.12367 | 27.89405 | 1160 ft | 92 kts | 83° |
| 2026-04-25 20:06 | 41.12656 | 27.90118 | 787 ft | 81 kts | 47° |
| 2026-04-25 20:07 | 41.13010 | 27.90646 | 533 ft | 65 kts | 47° |
| 2026-04-25 20:07 | 41.13243 | 27.90999 | 522 ft | 36 kts | 50° |
| 2026-04-25 20:07 | 41.13319 | 27.91137 | 523 ft | 19 kts | 91° |
| 2026-04-25 20:07 | 41.13273 | 27.91209 | 521 ft | 5 kts | 136° |
| 2026-04-25 20:08 | 41.13230 | 27.91259 | 521 ft | 17 kts | 141° |
| 2026-04-25 20:08 | 41.13156 | 27.91245 | 520 ft | 9 kts | 224° |
| 2026-04-25 20:08 | 41.13144 | 27.91247 | 520 ft | 0 kts | 139° |